Time;durP1;ratioP1;P1;durP2;ratioP2;P2;SDS_P1;SDS_P2;PMS_P1;PMS_P2;Temp;Humidity;BMP_temperature;BMP_pressure;BME280_temperature;BME280_humidity;BME280_pressure;Samples;Min_cycle;Max_cycle;Signal;HPM_P1;HPM_P2
2023/07/06 00:01:48;;;;;;;3.17;1.60;;;;;;;;;;5070806;28;20211;-33
2023/07/06 00:04:15;;;;;;;1.93;1.33;;;;;;;;;;5067238;28;20262;-31
2023/07/06 00:06:42;;;;;;;2.37;1.80;;;;;;;;;;5069979;28;20215;-30
2023/07/06 00:09:10;;;;;;;2.70;1.60;;;;;;;;;;5066710;28;20220;-36
2023/07/06 00:11:38;;;;;;;1.60;1.50;;;;;;;;;;5068154;28;20216;-33
2023/07/06 00:14:07;;;;;;;1.43;1.33;;;;;;;;;;5070675;28;20204;-35
2023/07/06 00:16:34;;;;;;;3.70;2.00;;;;;;;;;;5070504;28;20204;-34
2023/07/06 00:19:03;;;;;;;3.03;1.70;;;;;;;;;;5067535;28;20237;-30
2023/07/06 00:21:31;;;;;;;2.30;1.83;;;;;;;;;;5061749;28;20209;-33
2023/07/06 00:23:58;;;;;;;1.50;1.40;;;;;;;;;;5061366;28;20205;-31
2023/07/06 00:26:25;;;;;;;1.80;1.30;;;;;;;;;;5062146;28;20217;-35
2023/07/06 00:28:53;;;;;;;1.80;1.70;;;;;;;;;;5069786;28;20310;-30
2023/07/06 00:31:32;;;;;;;3.17;1.80;;;;;;;;;;5070641;28;20725;-33
2023/07/06 00:34:03;;;;;;;1.77;1.47;;;;;;;;;;5056951;28;20201;-32
2023/07/06 00:36:32;;;;;;;1.97;1.40;;;;;;;;;;5066944;28;20290;-33
2023/07/06 00:39:01;;;;;;;1.83;1.70;;;;;;;;;;5068257;28;20264;-31
2023/07/06 00:41:28;;;;;;;2.13;1.50;;;;;;;;;;5066470;28;20208;-30
2023/07/06 00:43:56;;;;;;;1.70;1.40;;;;;;;;;;5071545;28;20213;-31
2023/07/06 00:46:25;;;;;;;2.67;1.70;;;;;;;;;;5070878;28;20331;-31
2023/07/06 00:48:55;;;;;;;3.50;1.60;;;;;;;;;;5069136;28;20296;-32
2023/07/06 00:51:24;;;;;;;1.90;1.60;;;;;;;;;;5064989;28;20216;-33
2023/07/06 00:53:56;;;;;;;2.00;1.60;;;;;;;;;;5070898;28;20208;-35
2023/07/06 00:56:25;;;;;;;2.13;1.90;;;;;;;;;;5058123;28;20300;-35
2023/07/06 00:58:55;;;;;;;2.37;1.60;;;;;;;;;;5069432;28;20317;-33
2023/07/06 01:01:23;;;;;;;1.60;1.30;;;;;;;;;;5065453;28;20214;-32
2023/07/06 01:03:53;;;;;;;3.53;1.80;;;;;;;;;;5069329;28;20570;-31
2023/07/06 01:06:23;;;;;;;1.40;1.30;;;;;;;;;;5067937;28;20218;-35
2023/07/06 01:08:52;;;;;;;3.00;1.80;;;;;;;;;;5069964;28;20227;-32
2023/07/06 01:11:21;;;;;;;2.13;1.53;;;;;;;;;;5065072;28;20204;-30
2023/07/06 01:13:49;;;;;;;2.80;1.30;;;;;;;;;;5069884;28;20299;-33
2023/07/06 01:16:20;;;;;;;1.60;1.50;;;;;;;;;;5070033;28;20231;-30
2023/07/06 01:18:52;;;;;;;1.53;1.43;;;;;;;;;;5064807;28;20236;-33
2023/07/06 01:21:21;;;;;;;2.37;1.60;;;;;;;;;;5068638;28;20212;-32
2023/07/06 01:24:00;;;;;;;3.50;1.60;;;;;;;;;;5069835;28;20207;-31
2023/07/06 01:26:40;;;;;;;2.37;1.73;;;;;;;;;;5063332;28;20212;-33
2023/07/06 01:29:23;;;;;;;1.73;1.63;;;;;;;;;;5062640;28;20211;-33
2023/07/06 01:31:54;;;;;;;2.07;1.60;;;;;;;;;;5070682;28;20217;-32
2023/07/06 01:34:24;;;;;;;2.20;1.80;;;;;;;;;;5064645;28;20207;-31
2023/07/06 01:36:56;;;;;;;5.40;1.90;;;;;;;;;;5069619;28;20212;-32
2023/07/06 01:39:26;;;;;;;1.77;1.67;;;;;;;;;;5066910;28;20245;-32
2023/07/06 01:42:16;;;;;;;3.17;1.50;;;;;;;;;;5069266;28;20211;-34
2023/07/06 01:44:46;;;;;;;1.47;1.37;;;;;;;;;;5069952;28;20207;-36
2023/07/06 01:47:15;;;;;;;2.23;1.80;;;;;;;;;;5065057;28;20254;-31
2023/07/06 01:49:42;;;;;;;3.87;1.90;;;;;;;;;;5067260;28;20220;-33
2023/07/06 01:52:15;;;;;;;2.20;1.63;;;;;;;;;;5069205;28;20586;-29
2023/07/06 01:54:44;;;;;;;2.23;1.50;;;;;;;;;;5063525;28;20203;-29
2023/07/06 01:57:15;;;;;;;2.40;1.67;;;;;;;;;;5064743;28;20220;-31
2023/07/06 01:59:46;;;;;;;2.63;2.30;;;;;;;;;;5069758;28;20230;-32
2023/07/06 02:02:16;;;;;;;2.20;1.53;;;;;;;;;;5070138;28;20216;-33
2023/07/06 02:04:43;;;;;;;2.97;1.77;;;;;;;;;;5065401;28;21046;-33
2023/07/06 02:07:11;;;;;;;1.70;1.60;;;;;;;;;;5069587;28;20200;-32
2023/07/06 02:09:44;;;;;;;3.97;2.00;;;;;;;;;;5064654;28;20579;-33
2023/07/06 02:12:12;;;;;;;2.80;1.40;;;;;;;;;;5065792;28;20208;-33
2023/07/06 02:14:40;;;;;;;2.20;1.60;;;;;;;;;;5070081;28;20203;-32
2023/07/06 02:17:07;;;;;;;3.20;1.70;;;;;;;;;;5069436;28;20209;-34
2023/07/06 02:19:36;;;;;;;1.70;1.50;;;;;;;;;;5060808;28;20235;-31
2023/07/06 02:22:03;;;;;;;4.27;2.00;;;;;;;;;;5070029;28;20196;-31
2023/07/06 02:24:31;;;;;;;1.83;1.73;;;;;;;;;;5065836;28;20215;-32
2023/07/06 02:26:58;;;;;;;2.40;1.87;;;;;;;;;;5064175;28;20201;-33
2023/07/06 02:29:25;;;;;;;2.73;1.60;;;;;;;;;;5072828;28;20573;-32
2023/07/06 02:31:53;;;;;;;1.80;1.70;;;;;;;;;;5073427;28;20205;-33
2023/07/06 02:34:24;;;;;;;2.33;2.10;;;;;;;;;;5068367;28;20207;-34
2023/07/06 02:36:53;;;;;;;2.40;1.70;;;;;;;;;;5063768;28;20212;-36
2023/07/06 02:39:24;;;;;;;2.30;1.90;;;;;;;;;;5068172;28;20228;-28
2023/07/06 02:41:52;;;;;;;1.80;1.57;;;;;;;;;;5063680;28;20215;-33
2023/07/06 02:44:20;;;;;;;2.30;1.50;;;;;;;;;;5073465;28;20225;-33
2023/07/06 02:46:47;;;;;;;1.60;1.50;;;;;;;;;;5073709;28;20230;-34
2023/07/06 02:49:15;;;;;;;5.43;1.97;;;;;;;;;;5063799;28;20234;-33
2023/07/06 02:51:43;;;;;;;1.60;1.50;;;;;;;;;;5071220;28;20314;-29
2023/07/06 02:54:15;;;;;;;2.60;1.77;;;;;;;;;;5070641;28;20204;-34
2023/07/06 02:56:42;;;;;;;1.70;1.50;;;;;;;;;;5061536;28;20223;-33
2023/07/06 02:59:10;;;;;;;1.73;1.40;;;;;;;;;;5073431;28;20219;-32
2023/07/06 03:01:37;;;;;;;2.13;1.73;;;;;;;;;;5075044;28;20202;-34
2023/07/06 03:04:09;;;;;;;2.77;1.53;;;;;;;;;;5071829;28;20329;-33
2023/07/06 03:06:38;;;;;;;2.10;1.80;;;;;;;;;;5070888;28;20285;-33
2023/07/06 03:09:05;;;;;;;2.87;1.53;;;;;;;;;;5070273;28;20222;-30
2023/07/06 03:11:34;;;;;;;2.43;1.60;;;;;;;;;;5066615;28;20210;-31
2023/07/06 03:14:02;;;;;;;1.73;1.63;;;;;;;;;;5064422;28;20202;-32
2023/07/06 03:16:39;;;;;;;1.60;1.50;;;;;;;;;;5071686;28;20206;-33
2023/07/06 03:19:06;;;;;;;1.87;1.40;;;;;;;;;;5068279;28;20253;-32
2023/07/06 03:21:34;;;;;;;1.57;1.40;;;;;;;;;;5068863;28;20217;-33
2023/07/06 03:24:01;;;;;;;1.70;1.60;;;;;;;;;;5070574;28;20592;-33
2023/07/06 03:26:29;;;;;;;2.30;1.40;;;;;;;;;;5061710;28;20577;-34
2023/07/06 03:28:58;;;;;;;2.23;1.77;;;;;;;;;;5071931;28;20222;-33
2023/07/06 03:31:25;;;;;;;3.13;1.67;;;;;;;;;;5071714;28;20207;-34
2023/07/06 03:33:52;;;;;;;1.60;1.50;;;;;;;;;;5059685;28;20222;-30
2023/07/06 03:36:19;;;;;;;1.80;1.33;;;;;;;;;;5071348;28;20466;-33
2023/07/06 03:38:48;;;;;;;2.50;1.70;;;;;;;;;;5071184;28;20227;-34
2023/07/06 03:41:16;;;;;;;1.40;1.30;;;;;;;;;;5058392;28;20225;-31
2023/07/06 03:43:43;;;;;;;1.40;1.30;;;;;;;;;;5072036;28;20255;-29
2023/07/06 03:46:12;;;;;;;1.60;1.50;;;;;;;;;;5073720;28;20217;-35
2023/07/06 03:48:40;;;;;;;2.23;1.60;;;;;;;;;;5069323;28;20237;-32
2023/07/06 03:51:13;;;;;;;2.87;1.70;;;;;;;;;;5066236;28;20291;-34
2023/07/06 03:53:40;;;;;;;2.10;1.60;;;;;;;;;;5072028;28;20236;-35
2023/07/06 03:56:10;;;;;;;2.57;1.80;;;;;;;;;;5070637;28;20205;-35
2023/07/06 03:58:38;;;;;;;1.93;1.63;;;;;;;;;;5067586;28;20254;-30
2023/07/06 04:01:18;;;;;;;2.17;1.90;;;;;;;;;;5073454;28;20209;-34
2023/07/06 04:03:45;;;;;;;1.80;1.70;;;;;;;;;;5073659;28;20197;-31
2023/07/06 04:06:13;;;;;;;2.43;1.97;;;;;;;;;;5067512;28;20204;-32
2023/07/06 04:08:40;;;;;;;1.53;1.43;;;;;;;;;;5073167;28;20228;-30
2023/07/06 04:11:08;;;;;;;1.93;1.70;;;;;;;;;;5067844;28;20194;-29
2023/07/06 04:16:06;;;;;;;3.43;1.50;;;;;;;;;;5032293;28;20220;-25
2023/07/06 04:18:34;;;;;;;1.97;1.53;;;;;;;;;;5038656;28;20693;-24
2023/07/06 04:21:01;;;;;;;3.17;1.70;;;;;;;;;;5037643;28;20310;-25
2023/07/06 04:23:29;;;;;;;3.37;2.00;;;;;;;;;;5041762;28;20295;-26
2023/07/06 04:25:56;;;;;;;1.87;1.70;;;;;;;;;;5041420;28;20210;-26
2023/07/06 04:28:23;;;;;;;2.20;2.00;;;;;;;;;;5044080;28;20697;-26
2023/07/06 04:30:51;;;;;;;5.07;1.90;;;;;;;;;;5042928;28;20210;-26
2023/07/06 04:33:19;;;;;;;1.90;1.80;;;;;;;;;;5033989;28;20837;-24
2023/07/06 04:35:52;;;;;;;3.17;1.80;;;;;;;;;;5034226;28;20669;-25
2023/07/06 04:38:34;;;;;;;1.70;1.60;;;;;;;;;;5047896;28;20234;-26
2023/07/06 04:41:01;;;;;;;2.83;2.20;;;;;;;;;;5037062;28;20251;-23
2023/07/06 04:43:28;;;;;;;2.60;1.63;;;;;;;;;;5042968;28;20206;-25
2023/07/06 04:45:56;;;;;;;1.90;1.70;;;;;;;;;;5052338;28;20206;-24
2023/07/06 04:48:24;;;;;;;2.93;1.90;;;;;;;;;;5051034;28;20250;-24
2023/07/06 04:50:53;;;;;;;2.40;2.00;;;;;;;;;;5046297;28;20268;-26
2023/07/06 04:53:21;;;;;;;1.70;1.60;;;;;;;;;;5032581;28;20739;-26
2023/07/06 04:55:50;;;;;;;3.23;1.70;;;;;;;;;;5036164;28;20859;-24
2023/07/06 04:58:17;;;;;;;3.37;1.87;;;;;;;;;;5046791;28;20223;-24
2023/07/06 05:00:45;;;;;;;3.10;1.80;;;;;;;;;;5050498;28;20221;-25
2023/07/06 05:03:13;;;;;;;5.63;1.93;;;;;;;;;;5047506;28;20210;-25
2023/07/06 05:05:42;;;;;;;2.20;1.80;;;;;;;;;;5032497;28;20218;-25
2023/07/06 05:08:12;;;;;;;3.93;1.57;;;;;;;;;;5034803;28;20218;-27
2023/07/06 05:10:40;;;;;;;2.60;1.57;;;;;;;;;;5036192;28;20300;-25
2023/07/06 05:13:07;;;;;;;2.30;2.07;;;;;;;;;;5046294;28;20203;-27
2023/07/06 05:15:36;;;;;;;3.73;1.90;;;;;;;;;;5050452;28;20249;-25
2023/07/06 05:18:03;;;;;;;3.50;2.33;;;;;;;;;;5048563;28;20226;-27
2023/07/06 05:20:32;;;;;;;2.37;2.17;;;;;;;;;;5037718;28;20598;-25
2023/07/06 05:22:59;;;;;;;3.17;1.87;;;;;;;;;;5049971;28;20215;-25
2023/07/06 05:25:28;;;;;;;2.53;1.90;;;;;;;;;;5044524;28;20219;-27
2023/07/06 05:27:55;;;;;;;3.67;2.30;;;;;;;;;;5040967;28;20231;-27
2023/07/06 05:30:23;;;;;;;2.07;1.80;;;;;;;;;;5035225;28;20204;-25
2023/07/06 05:32:50;;;;;;;1.97;1.80;;;;;;;;;;5033557;28;20568;-25
2023/07/06 05:35:18;;;;;;;2.30;2.10;;;;;;;;;;5042414;28;20209;-25
2023/07/06 05:37:45;;;;;;;3.47;2.80;;;;;;;;;;5047868;28;20217;-24
2023/07/06 05:40:12;;;;;;;3.27;2.23;;;;;;;;;;5037023;28;20252;-24
2023/07/06 05:42:41;;;;;;;4.00;2.40;;;;;;;;;;5042727;28;20214;-25
2023/07/06 05:45:09;;;;;;;2.97;2.47;;;;;;;;;;5044139;28;20198;-26
2023/07/06 05:47:36;;;;;;;2.17;2.00;;;;;;;;;;5049446;28;20223;-25
2023/07/06 05:50:03;;;;;;;2.67;2.03;;;;;;;;;;5030684;28;20557;-28
2023/07/06 05:52:30;;;;;;;4.03;2.57;;;;;;;;;;5049805;28;20206;-26
2023/07/06 05:54:57;;;;;;;3.07;2.27;;;;;;;;;;5035105;28;20292;-27
2023/07/06 05:57:26;;;;;;;4.17;2.30;;;;;;;;;;5033305;28;20208;-28
2023/07/06 05:59:55;;;;;;;2.25;2.05;;;;;;;;;;5037575;28;20677;-27
2023/07/06 06:02:23;;;;;;;3.85;2.35;;;;;;;;;;5039363;28;20202;-23
2023/07/06 06:04:51;;;;;;;2.38;2.10;;;;;;;;;;5049439;28;20209;-27
2023/07/06 06:07:19;;;;;;;2.20;2.00;;;;;;;;;;5051327;28;20231;-25
2023/07/06 06:09:47;;;;;;;2.30;2.10;;;;;;;;;;5047396;28;20209;-28
2023/07/06 06:12:18;;;;;;;3.05;1.83;;;;;;;;;;5046364;28;20202;-25
2023/07/06 06:14:45;;;;;;;4.18;2.20;;;;;;;;;;5053563;28;20751;-26
2023/07/06 06:17:14;;;;;;;3.87;2.17;;;;;;;;;;5053090;28;20205;-26
2023/07/06 06:19:42;;;;;;;2.20;2.10;;;;;;;;;;5041641;28;20276;-26
2023/07/06 06:22:10;;;;;;;2.38;2.10;;;;;;;;;;5053568;28;20313;-24
2023/07/06 06:24:37;;;;;;;2.07;1.73;;;;;;;;;;5042477;28;20422;-26
2023/07/06 06:27:06;;;;;;;5.17;2.77;;;;;;;;;;5049844;28;20226;-28
2023/07/06 06:29:34;;;;;;;3.72;2.17;;;;;;;;;;5051853;28;20275;-27
2023/07/06 06:32:03;;;;;;;3.50;2.47;;;;;;;;;;5054396;28;20289;-23
2023/07/06 06:34:32;;;;;;;3.80;2.20;;;;;;;;;;5044425;28;20711;-25
2023/07/06 06:37:00;;;;;;;6.77;2.20;;;;;;;;;;5048646;28;20652;-25
2023/07/06 06:39:27;;;;;;;2.40;2.20;;;;;;;;;;5038875;28;20279;-25
2023/07/06 06:41:55;;;;;;;3.10;2.23;;;;;;;;;;5048478;28;20231;-27
2023/07/06 06:44:22;;;;;;;7.63;2.50;;;;;;;;;;5044557;28;20592;-27
2023/07/06 06:46:49;;;;;;;3.38;2.70;;;;;;;;;;5049726;28;20300;-27
2023/07/06 06:49:16;;;;;;;2.75;1.75;;;;;;;;;;5049612;28;20229;-27
2023/07/06 06:51:45;;;;;;;4.30;2.30;;;;;;;;;;5043898;28;20203;-26
2023/07/06 06:54:13;;;;;;;3.17;2.08;;;;;;;;;;5051028;28;20206;-27
2023/07/06 06:56:40;;;;;;;5.10;2.30;;;;;;;;;;5041948;28;20264;-26
2023/07/06 06:59:11;;;;;;;3.80;2.38;;;;;;;;;;5039982;28;20616;-28
2023/07/06 07:01:41;;;;;;;3.55;2.05;;;;;;;;;;5032739;28;20227;-28
2023/07/06 07:04:09;;;;;;;2.95;1.98;;;;;;;;;;5041278;28;20221;-26
2023/07/06 07:06:38;;;;;;;3.65;1.90;;;;;;;;;;5042917;28;20231;-26
2023/07/06 07:09:09;;;;;;;1.95;1.70;;;;;;;;;;5038538;28;20299;-29
2023/07/06 07:11:37;;;;;;;3.72;1.92;;;;;;;;;;5035889;28;20677;-25
2023/07/06 07:14:07;;;;;;;2.60;1.98;;;;;;;;;;5051679;28;20570;-26
2023/07/06 07:16:36;;;;;;;2.83;1.92;;;;;;;;;;5052250;28;20208;-24
2023/07/06 07:19:05;;;;;;;2.42;1.70;;;;;;;;;;5045296;28;20279;-26
2023/07/06 07:21:32;;;;;;;3.70;1.77;;;;;;;;;;5033275;28;20335;-27
2023/07/06 07:23:59;;;;;;;1.95;1.52;;;;;;;;;;5034821;28;20216;-28
2023/07/06 07:26:29;;;;;;;1.70;1.60;;;;;;;;;;5049110;28;20213;-26
2023/07/06 07:28:57;;;;;;;2.55;1.40;;;;;;;;;;5041644;28;20741;-30
2023/07/06 07:31:25;;;;;;;2.30;1.70;;;;;;;;;;5051998;28;20204;-26
2023/07/06 07:33:52;;;;;;;2.17;1.75;;;;;;;;;;5042407;28;20217;-29
2023/07/06 07:36:20;;;;;;;1.75;1.45;;;;;;;;;;5037887;28;20213;-27
2023/07/06 07:38:47;;;;;;;4.10;1.77;;;;;;;;;;5033580;28;20220;-26
2023/07/06 07:41:16;;;;;;;4.35;1.60;;;;;;;;;;5038530;28;20595;-25
2023/07/06 07:43:46;;;;;;;2.50;1.60;;;;;;;;;;5042182;28;20264;-26
2023/07/06 07:46:14;;;;;;;2.67;1.83;;;;;;;;;;5051226;28;20231;-26
2023/07/06 07:48:45;;;;;;;1.77;1.67;;;;;;;;;;5044388;28;20741;-26
2023/07/06 07:51:12;;;;;;;1.67;1.40;;;;;;;;;;5045878;28;20205;-26
2023/07/06 07:53:40;;;;;;;2.47;1.50;;;;;;;;;;5049120;28;20399;-30
2023/07/06 07:56:08;;;;;;;1.20;1.10;;;;;;;;;;5044137;28;20205;-28
2023/07/06 07:58:36;;;;;;;4.30;1.95;;;;;;;;;;5033888;28;20221;-24
2023/07/06 08:01:06;;;;;;;2.38;1.40;;;;;;;;;;5031120;28;20247;-30
2023/07/06 08:03:35;;;;;;;3.60;2.38;;;;;;;;;;5039359;28;20206;-29
2023/07/06 08:06:03;;;;;;;2.40;1.77;;;;;;;;;;5047436;28;20209;-28
2023/07/06 08:08:32;;;;;;;1.67;1.42;;;;;;;;;;5034177;28;20238;-27
2023/07/06 08:11:01;;;;;;;2.08;1.40;;;;;;;;;;5036327;28;20202;-29
2023/07/06 08:13:29;;;;;;;2.20;1.50;;;;;;;;;;5047030;28;20219;-28
2023/07/06 08:15:56;;;;;;;3.22;1.40;;;;;;;;;;5039699;28;20220;-28
2023/07/06 08:18:25;;;;;;;2.83;1.38;;;;;;;;;;5051207;28;20229;-25
2023/07/06 08:20:53;;;;;;;8.45;1.70;;;;;;;;;;5039601;28;20470;-26
2023/07/06 08:23:21;;;;;;;1.65;1.27;;;;;;;;;;5039483;28;20228;-27
2023/07/06 08:25:49;;;;;;;1.40;1.30;;;;;;;;;;5033975;28;20216;-27
2023/07/06 08:28:16;;;;;;;2.05;1.42;;;;;;;;;;5046109;28;20229;-27
2023/07/06 08:30:43;;;;;;;1.40;1.30;;;;;;;;;;5050851;28;20205;-28
2023/07/06 08:33:10;;;;;;;5.20;1.30;;;;;;;;;;5047033;28;20210;-26
2023/07/06 08:35:43;;;;;;;1.27;1.08;;;;;;;;;;5040109;28;20213;-26
2023/07/06 08:38:10;;;;;;;1.38;1.27;;;;;;;;;;5034749;28;20218;-27
2023/07/06 08:40:37;;;;;;;1.40;1.30;;;;;;;;;;5032780;28;20205;-26
2023/07/06 08:43:08;;;;;;;1.33;1.30;;;;;;;;;;5030586;28;20241;-26
2023/07/06 08:45:38;;;;;;;2.30;1.50;;;;;;;;;;5047946;28;20211;-26
2023/07/06 08:48:06;;;;;;;2.17;1.17;;;;;;;;;;5039580;28;20229;-28
2023/07/06 08:50:35;;;;;;;2.05;1.33;;;;;;;;;;5032658;28;20209;-28
2023/07/06 08:53:10;;;;;;;2.42;1.75;;;;;;;;;;5038462;28;20208;-26
2023/07/06 08:55:37;;;;;;;1.40;1.30;;;;;;;;;;5035170;28;20213;-30
2023/07/06 08:58:05;;;;;;;1.38;1.20;;;;;;;;;;5051691;28;20228;-30
2023/07/06 09:00:32;;;;;;;2.10;1.50;;;;;;;;;;5052366;28;20204;-26
2023/07/06 09:03:03;;;;;;;2.55;1.30;;;;;;;;;;5041178;28;20236;-29
2023/07/06 09:05:32;;;;;;;1.80;1.42;;;;;;;;;;5039125;28;20211;-29
2023/07/06 09:08:00;;;;;;;1.35;1.25;;;;;;;;;;5049611;28;20224;-28
2023/07/06 09:10:30;;;;;;;1.40;1.30;;;;;;;;;;5038948;28;20217;-27
2023/07/06 09:12:58;;;;;;;1.55;1.40;;;;;;;;;;5041297;28;20197;-27
2023/07/06 09:15:29;;;;;;;2.10;1.60;;;;;;;;;;5034592;28;20675;-29
2023/07/06 09:17:59;;;;;;;2.17;1.65;;;;;;;;;;5029298;28;20233;-26
2023/07/06 09:20:27;;;;;;;4.15;1.83;;;;;;;;;;5030908;28;20205;-31
2023/07/06 09:22:54;;;;;;;2.05;1.60;;;;;;;;;;5049151;28;20224;-26
2023/07/06 09:25:23;;;;;;;2.35;1.58;;;;;;;;;;5042423;28;20214;-24
2023/07/06 09:27:52;;;;;;;2.08;1.42;;;;;;;;;;5035047;28;20518;-24
2023/07/06 09:30:23;;;;;;;1.83;1.63;;;;;;;;;;5031678;28;20200;-25
2023/07/06 09:32:53;;;;;;;3.70;1.55;;;;;;;;;;5031685;28;20627;-29
2023/07/06 09:35:21;;;;;;;2.03;1.83;;;;;;;;;;5036355;28;20246;-27
2023/07/06 09:37:50;;;;;;;5.18;1.48;;;;;;;;;;5048122;28;20224;-27
2023/07/06 09:40:17;;;;;;;2.63;1.65;;;;;;;;;;5039236;28;20204;-27
2023/07/06 09:42:44;;;;;;;1.83;1.73;;;;;;;;;;5041703;28;20225;-27
2023/07/06 09:45:19;;;;;;;2.80;1.80;;;;;;;;;;5039420;28;20205;-25
2023/07/06 09:47:49;;;;;;;1.83;1.50;;;;;;;;;;5031723;28;20324;-27
2023/07/06 09:50:19;;;;;;;3.92;1.75;;;;;;;;;;5033734;28;20213;-26
2023/07/06 09:52:46;;;;;;;2.80;2.22;;;;;;;;;;5034215;28;20358;-26
2023/07/06 09:55:19;;;;;;;2.00;1.80;;;;;;;;;;5042400;28;20304;-24
2023/07/06 09:57:48;;;;;;;2.22;1.83;;;;;;;;;;5033726;28;20234;-26
2023/07/06 10:00:18;;;;;;;2.00;1.80;;;;;;;;;;5033245;28;20212;-29
2023/07/06 10:02:53;;;;;;;3.05;1.90;;;;;;;;;;5035674;28;20716;-32
2023/07/06 10:05:26;;;;;;;2.50;1.80;;;;;;;;;;5045856;28;20206;-37
2023/07/06 10:07:56;;;;;;;1.77;1.63;;;;;;;;;;5038982;28;20220;-34
2023/07/06 10:10:32;;;;;;;2.30;1.67;;;;;;;;;;5038283;28;20212;-32
2023/07/06 10:13:03;;;;;;;2.40;1.90;;;;;;;;;;5043631;28;20205;-33
2023/07/06 10:15:37;;;;;;;2.58;1.70;;;;;;;;;;5036682;28;20211;-36
2023/07/06 10:18:07;;;;;;;2.03;1.77;;;;;;;;;;5047364;28;20242;-36
2023/07/06 10:20:38;;;;;;;2.95;1.95;;;;;;;;;;5044646;28;20212;-34
2023/07/06 10:23:13;;;;;;;2.25;2.08;;;;;;;;;;5040922;28;20224;-30
2023/07/06 10:25:46;;;;;;;3.05;1.88;;;;;;;;;;5037748;28;20200;-32
2023/07/06 10:28:16;;;;;;;3.33;1.65;;;;;;;;;;5039841;28;20233;-33
2023/07/06 10:30:47;;;;;;;2.25;2.00;;;;;;;;;;5039458;28;20213;-32
2023/07/06 10:33:18;;;;;;;3.67;1.95;;;;;;;;;;5037396;28;20205;-35
2023/07/06 10:35:48;;;;;;;1.80;1.70;;;;;;;;;;5043671;28;20205;-34
2023/07/06 10:38:16;;;;;;;2.88;1.90;;;;;;;;;;5043385;28;20678;-36
2023/07/06 10:40:44;;;;;;;3.47;1.70;;;;;;;;;;5039327;28;20196;-34
2023/07/06 10:43:20;;;;;;;3.33;1.70;;;;;;;;;;5043757;28;20216;-33
2023/07/06 10:45:50;;;;;;;1.95;1.83;;;;;;;;;;5041521;28;20687;-31
2023/07/06 10:48:27;;;;;;;2.97;1.85;;;;;;;;;;5040476;28;20263;-28
2023/07/06 10:51:07;;;;;;;1.95;1.83;;;;;;;;;;5046543;28;20210;-35
2023/07/06 10:53:36;;;;;;;2.95;2.03;;;;;;;;;;5043598;28;20191;-29
2023/07/06 10:56:08;;;;;;;2.58;2.00;;;;;;;;;;5045527;28;20204;-35
2023/07/06 10:58:37;;;;;;;2.08;1.70;;;;;;;;;;5050263;28;20237;-29
2023/07/06 11:01:10;;;;;;;2.28;1.60;;;;;;;;;;5038805;28;20211;-32
2023/07/06 11:03:37;;;;;;;2.97;2.08;;;;;;;;;;5046415;28;20228;-30
2023/07/06 11:06:06;;;;;;;3.20;1.83;;;;;;;;;;5048505;28;20231;-34
2023/07/06 11:08:53;;;;;;;2.00;1.63;;;;;;;;;;5050071;28;20230;-32
2023/07/06 11:11:21;;;;;;;1.88;1.77;;;;;;;;;;5043547;28;20210;-32
2023/07/06 11:13:51;;;;;;;2.22;1.77;;;;;;;;;;5041550;28;20203;-28
2023/07/06 11:16:27;;;;;;;1.88;1.63;;;;;;;;;;5051267;28;20200;-31
2023/07/06 11:18:56;;;;;;;1.75;1.65;;;;;;;;;;5043335;28;20229;-32
2023/07/06 11:21:31;;;;;;;2.13;1.85;;;;;;;;;;5037142;28;20222;-32
2023/07/06 11:24:02;;;;;;;2.05;1.90;;;;;;;;;;5051720;28;20217;-35
2023/07/06 11:26:35;;;;;;;2.97;2.00;;;;;;;;;;5040272;28;20257;-29
2023/07/06 11:29:07;;;;;;;3.38;2.20;;;;;;;;;;5032057;28;20598;-37
2023/07/06 11:31:40;;;;;;;2.75;1.90;;;;;;;;;;5046198;28;20200;-32
2023/07/06 11:34:13;;;;;;;3.10;1.92;;;;;;;;;;5047309;28;20273;-32
2023/07/06 11:36:45;;;;;;;3.50;2.20;;;;;;;;;;5033428;28;20595;-30
2023/07/06 11:39:14;;;;;;;1.83;1.73;;;;;;;;;;5041766;28;20231;-32
2023/07/06 11:41:43;;;;;;;2.22;2.03;;;;;;;;;;5044017;28;20222;-34
2023/07/06 11:44:19;;;;;;;2.05;1.92;;;;;;;;;;5051018;28;20202;-35
2023/07/06 11:46:55;;;;;;;2.05;1.85;;;;;;;;;;5051449;28;20225;-33
2023/07/06 11:49:29;;;;;;;2.03;1.83;;;;;;;;;;5046417;28;20233;-33
2023/07/06 11:51:58;;;;;;;4.20;2.15;;;;;;;;;;5046105;28;20218;-35
2023/07/06 11:54:40;;;;;;;4.47;2.55;;;;;;;;;;5042916;28;20211;-34
2023/07/06 11:57:25;;;;;;;3.53;1.90;;;;;;;;;;5038915;28;20235;-34
2023/07/06 12:00:09;;;;;;;2.38;1.73;;;;;;;;;;5050093;28;20203;-30
2023/07/06 12:02:37;;;;;;;2.75;2.03;;;;;;;;;;5052101;28;20264;-31
2023/07/06 12:05:05;;;;;;;3.08;2.08;;;;;;;;;;5040481;28;20209;-32
2023/07/06 12:07:34;;;;;;;2.72;1.98;;;;;;;;;;5042535;28;20217;-39
2023/07/06 12:10:06;;;;;;;1.98;1.70;;;;;;;;;;5043926;28;20200;-33
2023/07/06 12:12:35;;;;;;;2.38;2.15;;;;;;;;;;5050858;28;20228;-34
2023/07/06 12:15:05;;;;;;;2.90;2.20;;;;;;;;;;5039002;28;20217;-32
2023/07/06 12:17:32;;;;;;;2.42;2.22;;;;;;;;;;5031181;28;20304;-34
2023/07/06 12:20:01;;;;;;;3.47;2.20;;;;;;;;;;5036397;28;20204;-32
2023/07/06 12:22:28;;;;;;;4.35;2.15;;;;;;;;;;5049964;28;20231;-35
2023/07/06 12:24:56;;;;;;;3.55;2.30;;;;;;;;;;5294234;22;20235;-28
2023/07/06 12:27:23;;;;;;;2.58;2.00;;;;;;;;;;5044128;28;20688;-27
2023/07/06 12:29:51;;;;;;;2.42;2.05;;;;;;;;;;5052846;28;20223;-26
2023/07/06 12:32:19;;;;;;;2.60;2.00;;;;;;;;;;5051282;28;20203;-28
2023/07/06 12:34:48;;;;;;;4.10;1.90;;;;;;;;;;5050738;28;20239;-30
2023/07/06 12:37:17;;;;;;;2.13;1.90;;;;;;;;;;5050163;28;20216;-31
2023/07/06 12:39:45;;;;;;;4.15;1.80;;;;;;;;;;5046343;28;20569;-29
2023/07/06 12:42:13;;;;;;;2.75;1.80;;;;;;;;;;5049247;28;20198;-31
2023/07/06 12:44:43;;;;;;;2.63;1.70;;;;;;;;;;5052736;28;20209;-31
2023/07/06 12:47:24;;;;;;;3.05;1.85;;;;;;;;;;5052758;28;20291;-27
2023/07/06 12:49:52;;;;;;;5.05;2.20;;;;;;;;;;5049909;28;20236;-29
2023/07/06 12:52:23;;;;;;;2.30;2.10;;;;;;;;;;5052293;28;20261;-30
2023/07/06 12:54:52;;;;;;;2.10;1.83;;;;;;;;;;5048981;28;20229;-30
2023/07/06 12:57:22;;;;;;;3.25;1.70;;;;;;;;;;5047767;28;20298;-29
2023/07/06 12:59:52;;;;;;;2.35;2.00;;;;;;;;;;5052404;28;20203;-31
2023/07/06 13:02:20;;;;;;;3.50;1.98;;;;;;;;;;5051542;28;20263;-31
2023/07/06 13:04:47;;;;;;;2.58;2.20;;;;;;;;;;5043570;28;20224;-29
2023/07/06 13:07:16;;;;;;;6.65;2.10;;;;;;;;;;5051943;28;20199;-29
2023/07/06 13:09:45;;;;;;;2.85;2.03;;;;;;;;;;5044584;28;20209;-30
2023/07/06 13:12:18;;;;;;;1.75;1.58;;;;;;;;;;5047498;28;20272;-29
2023/07/06 13:14:46;;;;;;;2.67;1.95;;;;;;;;;;5051979;28;20226;-27
2023/07/06 13:17:14;;;;;;;3.03;2.10;;;;;;;;;;5052209;28;20212;-28
2023/07/06 13:19:42;;;;;;;2.10;1.55;;;;;;;;;;5042408;28;20229;-30
2023/07/06 13:22:10;;;;;;;3.20;1.98;;;;;;;;;;5052227;28;20208;-29
2023/07/06 13:24:39;;;;;;;4.13;2.08;;;;;;;;;;5050273;28;20642;-28
2023/07/06 13:27:13;;;;;;;2.25;2.05;;;;;;;;;;5051367;28;20216;-30
2023/07/06 13:29:40;;;;;;;2.38;2.13;;;;;;;;;;5052218;28;20224;-29
2023/07/06 13:32:15;;;;;;;2.63;1.90;;;;;;;;;;5051999;28;20209;-28
2023/07/06 13:34:43;;;;;;;2.08;1.88;;;;;;;;;;5043812;28;20208;-28
2023/07/06 13:37:14;;;;;;;2.42;2.22;;;;;;;;;;5051391;28;20226;-29
2023/07/06 13:39:42;;;;;;;2.30;2.08;;;;;;;;;;5045748;28;20252;-30
2023/07/06 13:42:13;;;;;;;3.03;2.00;;;;;;;;;;5052193;28;20265;-30
2023/07/06 13:44:40;;;;;;;2.97;2.13;;;;;;;;;;5051781;28;20218;-28
2023/07/06 13:47:09;;;;;;;3.55;2.10;;;;;;;;;;5049000;28;20212;-28
2023/07/06 13:49:36;;;;;;;5.20;2.20;;;;;;;;;;5031628;28;20224;-30
2023/07/06 13:52:06;;;;;;;4.25;2.30;;;;;;;;;;5042272;28;20211;-31
2023/07/06 13:54:33;;;;;;;2.50;2.15;;;;;;;;;;5045318;28;20232;-31
2023/07/06 13:57:00;;;;;;;2.17;1.90;;;;;;;;;;5038019;28;20269;-28
2023/07/06 13:59:29;;;;;;;2.95;1.90;;;;;;;;;;5050370;28;20256;-30
2023/07/06 14:01:56;;;;;;;2.63;2.33;;;;;;;;;;5051509;28;20195;-29
2023/07/06 14:04:23;;;;;;;2.08;1.88;;;;;;;;;;5047149;28;20229;-30
2023/07/06 14:06:50;;;;;;;2.08;1.80;;;;;;;;;;5047421;28;20203;-28
2023/07/06 14:09:18;;;;;;;2.40;1.90;;;;;;;;;;5047269;28;20239;-29
2023/07/06 14:11:47;;;;;;;4.13;2.40;;;;;;;;;;5036878;28;20213;-31
2023/07/06 14:14:14;;;;;;;2.72;2.08;;;;;;;;;;5049751;28;20205;-29
2023/07/06 14:16:45;;;;;;;4.22;2.10;;;;;;;;;;5039438;28;20206;-29
2023/07/06 14:19:12;;;;;;;1.85;1.75;;;;;;;;;;5034230;28;20483;-31
2023/07/06 14:21:39;;;;;;;2.90;2.30;;;;;;;;;;5043439;28;20210;-29
2023/07/06 14:24:07;;;;;;;2.30;1.80;;;;;;;;;;5037675;28;20227;-31
2023/07/06 14:26:34;;;;;;;2.03;1.83;;;;;;;;;;5052921;28;20220;-30
2023/07/06 14:29:01;;;;;;;2.22;1.70;;;;;;;;;;5055959;28;20225;-25
2023/07/06 14:31:30;;;;;;;2.45;2.08;;;;;;;;;;5042217;28;20210;-26
2023/07/06 14:33:58;;;;;;;3.05;2.05;;;;;;;;;;5050436;28;20211;-30
2023/07/06 14:36:25;;;;;;;3.95;1.83;;;;;;;;;;5049433;28;20265;-29
2023/07/06 14:38:53;;;;;;;4.10;1.92;;;;;;;;;;5055550;28;20239;-30
2023/07/06 14:41:20;;;;;;;2.70;1.95;;;;;;;;;;5042760;28;20212;-29
2023/07/06 14:43:47;;;;;;;6.00;2.10;;;;;;;;;;5052275;28;20234;-27
2023/07/06 14:46:14;;;;;;;2.88;2.50;;;;;;;;;;5054031;28;20283;-31
2023/07/06 14:48:41;;;;;;;2.35;2.00;;;;;;;;;;5047795;28;20239;-29
2023/07/06 14:51:10;;;;;;;2.30;1.90;;;;;;;;;;5053418;28;20211;-31
2023/07/06 14:53:38;;;;;;;2.92;2.10;;;;;;;;;;5054468;28;20230;-29
2023/07/06 14:56:06;;;;;;;1.60;1.50;;;;;;;;;;5050664;28;20213;-31
2023/07/06 14:58:33;;;;;;;4.50;2.45;;;;;;;;;;5050266;28;20230;-31